createdAt,value
2018-03-07T00:00:26.223Z,24.20
2018-03-07T00:02:54.481Z,26.23
2018-03-07T00:05:21.950Z,25.03
2018-03-07T00:07:49.431Z,25.33
2018-03-07T00:10:16.897Z,23.77
2018-03-07T00:12:44.396Z,22.97
2018-03-07T00:15:11.874Z,24.77
2018-03-07T00:17:39.362Z,24.07
2018-03-07T00:20:07.673Z,24.00
2018-03-07T00:22:35.148Z,26.07
2018-03-07T00:25:02.618Z,24.53
2018-03-07T00:27:30.094Z,24.90
2018-03-07T00:29:57.569Z,26.63
2018-03-07T00:32:25.058Z,24.73
2018-03-07T00:34:52.566Z,26.10
2018-03-07T00:37:20.026Z,26.13
2018-03-07T00:39:47.507Z,27.67
2018-03-07T00:42:15.734Z,25.67
2018-03-07T00:44:43.242Z,26.07
2018-03-07T00:47:10.716Z,27.07
2018-03-07T00:49:38.175Z,25.57
2018-03-07T00:52:05.654Z,28.17
2018-03-07T00:54:33.133Z,26.23
2018-03-07T00:57:00.610Z,26.47
2018-03-07T00:59:28.085Z,25.83
2018-03-07T01:01:55.582Z,25.03
2018-03-07T01:04:23.054Z,26.50
2018-03-07T01:06:50.538Z,26.67
2018-03-07T01:09:17.997Z,26.60
2018-03-07T01:11:45.506Z,26.20
2018-03-07T01:14:12.958Z,26.83
2018-03-07T01:16:40.413Z,24.57
2018-03-07T01:19:07.987Z,25.73
2018-03-07T01:21:35.443Z,28.00
2018-03-07T01:24:02.945Z,25.63
2018-03-07T01:26:30.408Z,24.93
2018-03-07T01:28:57.894Z,24.90
2018-03-07T01:31:25.354Z,24.97
2018-03-07T01:33:52.858Z,24.83
2018-03-07T01:36:20.329Z,25.10
2018-03-07T01:38:47.827Z,25.10
2018-03-07T01:41:16.089Z,25.47
2018-03-07T01:43:44.349Z,25.60
2018-03-07T01:46:11.856Z,25.13
2018-03-07T01:48:39.347Z,26.10
2018-03-07T01:51:06.825Z,26.90
2018-03-07T01:53:35.063Z,25.60
2018-03-07T01:56:02.561Z,24.87
2018-03-07T01:58:30.025Z,24.73
2018-03-07T02:00:57.518Z,23.83
2018-03-07T02:03:25.008Z,23.47
2018-03-07T02:05:52.471Z,23.93
2018-03-07T02:08:19.934Z,24.53
2018-03-07T02:10:47.469Z,24.10
2018-03-07T02:13:14.958Z,23.80
2018-03-07T02:15:43.215Z,24.37
2018-03-07T02:18:10.676Z,24.10
2018-03-07T02:20:38.162Z,24.50
2018-03-07T02:23:05.621Z,26.00
2018-03-07T02:25:33.113Z,25.30
2018-03-07T02:28:00.592Z,24.43
2018-03-07T02:30:28.061Z,23.87
2018-03-07T02:32:55.550Z,25.53
2018-03-07T02:35:23.046Z,24.13
2018-03-07T02:37:51.284Z,24.43
2018-03-07T02:40:18.771Z,26.03
2018-03-07T02:42:47.017Z,26.23
2018-03-07T02:45:14.509Z,24.57
2018-03-07T02:47:42.774Z,26.40
2018-03-07T02:50:10.285Z,25.77
2018-03-07T02:52:37.799Z,26.80
2018-03-07T02:55:05.302Z,26.27
2018-03-07T02:57:32.761Z,25.90
2018-03-07T03:00:00.223Z,25.60
2018-03-07T03:02:27.715Z,28.07
2018-03-07T03:04:55.194Z,26.00
2018-03-07T03:07:23.459Z,27.30
2018-03-07T03:09:50.926Z,25.93
2018-03-07T03:12:19.165Z,28.87
2018-03-07T03:14:46.649Z,25.40
2018-03-07T03:17:14.134Z,26.87
2018-03-07T03:19:41.615Z,27.50
2018-03-07T03:22:09.098Z,25.40
2018-03-07T03:24:36.561Z,23.23
2018-03-07T03:27:04.085Z,21.40
2018-03-07T03:29:31.552Z,19.83
2018-03-07T03:31:59.009Z,21.37
2018-03-07T03:34:26.466Z,21.70
2018-03-07T03:36:53.958Z,21.17
2018-03-07T03:39:21.465Z,22.07
2018-03-07T03:41:48.954Z,21.00
2018-03-07T03:44:16.418Z,22.40
2018-03-07T03:46:43.903Z,22.73
2018-03-07T03:49:11.381Z,22.57
2018-03-07T03:51:38.864Z,22.93
2018-03-07T03:54:06.319Z,23.83
2018-03-07T03:56:33.797Z,21.70
2018-03-07T03:59:01.258Z,20.43
2018-03-07T04:01:28.741Z,19.97
2018-03-07T04:03:56.194Z,20.73
2018-03-07T04:06:23.687Z,21.20
2018-03-07T04:08:51.961Z,20.63
2018-03-07T04:11:21.066Z,22.07
2018-03-07T04:13:49.290Z,21.23
2018-03-07T04:16:16.779Z,20.80
2018-03-07T04:18:44.254Z,20.30
2018-03-07T04:21:12.476Z,20.33
2018-03-07T04:23:40.016Z,23.27
2018-03-07T04:26:07.509Z,22.70
2018-03-07T04:28:34.981Z,21.80
2018-03-07T04:31:02.459Z,22.93
2018-03-07T04:33:29.930Z,22.20
2018-03-07T04:35:57.429Z,22.20
2018-03-07T04:38:24.946Z,22.40
2018-03-07T04:40:53.196Z,22.23
2018-03-07T04:43:20.673Z,25.27
2018-03-07T04:45:48.930Z,23.50
2018-03-07T04:48:16.946Z,23.70
2018-03-07T04:50:44.467Z,23.53
2018-03-07T04:53:11.920Z,22.97
2018-03-07T04:55:39.378Z,25.13
2018-03-07T04:58:06.849Z,22.20
2018-03-07T05:00:35.097Z,23.93
2018-03-07T05:03:02.575Z,27.27
2018-03-07T05:05:30.053Z,26.13
2018-03-07T05:07:57.513Z,27.13
2018-03-07T05:10:25.761Z,24.90
2018-03-07T05:12:53.236Z,24.93
2018-03-07T05:15:20.738Z,24.43
2018-03-07T05:17:48.206Z,22.50
2018-03-07T05:20:15.686Z,25.53
2018-03-07T05:22:43.927Z,23.57
2018-03-07T05:25:11.466Z,24.13
2018-03-07T05:27:39.678Z,25.37
2018-03-07T05:30:07.145Z,25.70
2018-03-07T05:32:34.633Z,25.20
2018-03-07T05:35:02.283Z,26.20
2018-03-07T05:37:29.746Z,24.87
2018-03-07T05:39:57.235Z,26.50
2018-03-07T05:42:24.737Z,26.53
2018-03-07T05:44:52.203Z,25.10
2018-03-07T05:47:19.663Z,25.07
2018-03-07T05:49:47.928Z,26.83
2018-03-07T05:52:15.395Z,25.60
2018-03-07T05:54:42.857Z,22.43
2018-03-07T05:57:10.350Z,23.00
2018-03-07T05:59:38.633Z,22.20
2018-03-07T06:02:06.097Z,24.70
2018-03-07T06:04:34.345Z,25.30
2018-03-07T06:07:01.861Z,21.23
2018-03-07T06:09:29.316Z,23.70
2018-03-07T06:11:56.809Z,23.50
2018-03-07T06:14:24.276Z,23.40
2018-03-07T06:16:52.532Z,28.00
2018-03-07T06:19:19.987Z,26.40
2018-03-07T06:21:47.498Z,28.20
2018-03-07T06:26:47.899Z,24.07
2018-03-07T06:29:15.415Z,26.10
2018-03-07T06:31:42.880Z,18.57
2018-03-07T06:34:10.380Z,16.97
2018-03-07T06:36:37.870Z,23.77
2018-03-07T06:39:05.325Z,23.57
2018-03-07T06:41:32.783Z,23.30
2018-03-07T06:44:00.306Z,22.97
2018-03-07T06:46:27.822Z,23.70
2018-03-07T06:48:55.265Z,25.23
2018-03-07T06:51:23.649Z,26.50
2018-03-07T06:53:51.870Z,25.47
2018-03-07T06:56:19.413Z,24.93
2018-03-07T06:58:46.928Z,25.17
2018-03-07T07:01:14.379Z,27.93
2018-03-07T07:03:41.897Z,27.23
2018-03-07T07:06:09.356Z,26.43
2018-03-07T07:08:36.818Z,28.87
2018-03-07T07:11:04.598Z,29.30
2018-03-07T07:13:32.081Z,28.10
2018-03-07T07:15:59.541Z,25.97
2018-03-07T07:18:27.067Z,28.97
2018-03-07T07:20:54.544Z,27.17
2018-03-07T07:23:22.086Z,26.50
2018-03-07T07:25:49.586Z,28.00
2018-03-07T07:28:18.031Z,27.17
2018-03-07T07:30:45.501Z,26.37
2018-03-07T07:33:12.962Z,27.10
2018-03-07T07:35:40.436Z,30.67
2018-03-07T07:38:07.905Z,38.00
2018-03-07T07:40:36.156Z,37.20
2018-03-07T07:43:03.632Z,34.87
2018-03-07T07:45:31.865Z,38.40
2018-03-07T07:47:59.357Z,37.13
2018-03-07T07:50:26.842Z,28.33
2018-03-07T07:52:54.341Z,27.67
2018-03-07T07:55:21.867Z,26.97
2018-03-07T07:57:49.342Z,25.60
2018-03-07T08:00:16.816Z,24.50
2018-03-07T08:02:44.302Z,25.10
2018-03-07T08:05:11.782Z,25.33
2018-03-07T08:07:39.273Z,24.77
2018-03-07T08:10:06.765Z,25.80
2018-03-07T08:12:35.005Z,27.93
2018-03-07T08:15:02.493Z,27.27
2018-03-07T08:17:29.955Z,28.77
2018-03-07T08:19:58.261Z,32.50
2018-03-07T08:22:26.501Z,37.90
2018-03-07T08:24:53.960Z,39.23
2018-03-07T08:27:21.694Z,38.80
2018-03-07T08:29:49.169Z,38.40
2018-03-07T08:32:16.653Z,41.40
2018-03-07T08:34:44.130Z,32.87
2018-03-07T08:37:11.617Z,32.50
2018-03-07T08:39:39.105Z,32.30
2018-03-07T08:42:06.586Z,31.20
2018-03-07T08:44:34.061Z,32.40
2018-03-07T08:47:01.537Z,35.97
2018-03-07T08:49:29.801Z,39.47
2018-03-07T08:51:58.088Z,36.20
2018-03-07T08:54:26.342Z,35.97
2018-03-07T08:56:53.837Z,40.77
2018-03-07T08:59:21.469Z,23.30
2018-03-07T09:01:48.966Z,38.90
2018-03-07T09:04:16.420Z,35.67
2018-03-07T09:06:43.882Z,34.37
2018-03-07T09:09:11.373Z,40.93
2018-03-07T09:11:38.865Z,35.07
2018-03-07T09:14:06.342Z,30.40
2018-03-07T09:16:34.578Z,23.70
2018-03-07T09:19:02.119Z,30.20
2018-03-07T09:21:29.590Z,28.97
2018-03-07T09:23:57.065Z,32.13
2018-03-07T09:26:24.561Z,33.57
2018-03-07T09:28:52.816Z,33.63
2018-03-07T09:31:20.313Z,34.10
2018-03-07T09:33:47.829Z,32.90
2018-03-07T09:36:15.308Z,20.00
2018-03-07T09:38:43.536Z,33.07
2018-03-07T09:41:11.021Z,33.60
2018-03-07T09:43:38.480Z,33.60
2018-03-07T09:46:05.959Z,32.70
2018-03-07T09:48:34.277Z,32.23
2018-03-07T09:51:01.739Z,31.63
2018-03-07T09:53:29.225Z,32.40
2018-03-07T09:55:56.677Z,27.13
2018-03-07T09:58:24.157Z,34.17
2018-03-07T10:00:51.680Z,33.83
2018-03-07T10:03:19.154Z,36.33
2018-03-07T10:05:46.624Z,33.43
2018-03-07T10:08:14.110Z,34.07
2018-03-07T10:10:42.363Z,34.50
2018-03-07T10:13:09.826Z,31.67
2018-03-07T10:15:37.310Z,32.40
2018-03-07T10:18:05.583Z,35.97
2018-03-07T10:20:33.829Z,35.10
2018-03-07T10:23:01.313Z,36.50
2018-03-07T10:25:29.551Z,34.30
2018-03-07T10:27:57.043Z,35.17
2018-03-07T10:30:25.265Z,36.40
2018-03-07T10:32:52.852Z,29.43
2018-03-07T10:35:20.401Z,32.23
2018-03-07T10:37:48.701Z,36.10
2018-03-07T10:40:16.174Z,35.37
2018-03-07T10:42:44.414Z,34.90
2018-03-07T10:45:11.917Z,35.80
2018-03-07T10:47:40.141Z,34.07
2018-03-07T10:50:07.625Z,30.47
2018-03-07T10:52:35.093Z,33.10
2018-03-07T10:55:02.581Z,33.67
2018-03-07T10:57:30.051Z,34.10
2018-03-07T10:59:57.540Z,30.60
2018-03-07T11:02:24.992Z,29.90
2018-03-07T11:04:52.489Z,30.53
2018-03-07T11:07:19.963Z,30.00
2018-03-07T11:09:48.249Z,26.57
2018-03-07T11:12:15.740Z,29.33
2018-03-07T11:14:43.213Z,30.93
2018-03-07T11:17:10.696Z,28.50
2018-03-07T11:19:38.162Z,28.47
2018-03-07T11:22:05.668Z,29.50
2018-03-07T11:24:33.176Z,25.70
2018-03-07T11:27:00.756Z,25.37
2018-03-07T11:29:28.224Z,25.57
2018-03-07T11:31:55.734Z,23.93
2018-03-07T11:34:23.231Z,23.43
2018-03-07T11:36:51.481Z,21.00
2018-03-07T11:39:18.993Z,20.83
2018-03-07T11:41:46.454Z,20.67
2018-03-07T11:44:13.925Z,13.63
2018-03-07T11:46:41.414Z,16.53
2018-03-07T11:49:08.873Z,16.80
2018-03-07T11:51:36.358Z,17.07
2018-03-07T11:54:03.814Z,17.70
2018-03-07T11:56:31.322Z,13.07
2018-03-07T11:58:58.793Z,14.83
2018-03-07T12:01:26.291Z,13.97
2018-03-07T12:03:54.530Z,11.20
2018-03-07T12:06:22.784Z,11.30
2018-03-07T12:08:50.305Z,10.17
2018-03-07T12:11:18.552Z,11.40
2018-03-07T12:13:46.030Z,10.93
2018-03-07T12:16:14.317Z,10.30
2018-03-07T12:18:42.571Z,10.93
2018-03-07T12:21:10.812Z,10.47
2018-03-07T12:23:38.343Z,10.93
2018-03-07T12:26:05.853Z,8.60
2018-03-07T12:28:33.358Z,10.10
2018-03-07T12:31:00.834Z,7.23
2018-03-07T12:33:28.319Z,9.37
2018-03-07T12:35:55.797Z,8.37
2018-03-07T12:38:23.282Z,8.67
2018-03-07T12:40:51.506Z,7.33
2018-03-07T12:43:19.001Z,7.80
2018-03-07T12:45:47.233Z,8.80
2018-03-07T12:48:14.725Z,8.53
2018-03-07T12:50:42.176Z,4.20
2018-03-07T12:53:09.661Z,7.33
2018-03-07T12:55:37.153Z,7.53
2018-03-07T12:58:04.620Z,6.10
2018-03-07T13:00:32.117Z,4.67
2018-03-07T13:02:59.573Z,7.00
2018-03-07T13:05:27.058Z,6.47
2018-03-07T13:07:55.292Z,5.77
2018-03-07T13:10:23.510Z,7.77
2018-03-07T13:12:51.058Z,7.00
2018-03-07T13:15:19.311Z,7.77
2018-03-07T13:17:46.769Z,7.53
2018-03-07T13:20:14.242Z,6.70
2018-03-07T13:22:41.721Z,5.63
2018-03-07T13:25:09.941Z,6.70
2018-03-07T13:27:37.410Z,6.03
2018-03-07T13:30:04.897Z,6.20
2018-03-07T13:32:33.153Z,7.70
2018-03-07T13:35:00.629Z,5.90
2018-03-07T13:37:28.087Z,6.40
2018-03-07T13:39:55.561Z,8.53
2018-03-07T13:42:23.778Z,7.80
2018-03-07T13:44:51.270Z,8.40
2018-03-07T13:47:18.733Z,9.87
2018-03-07T13:49:46.213Z,7.67
2018-03-07T13:52:14.446Z,6.87
2018-03-07T13:54:41.896Z,7.30
2018-03-07T13:57:09.391Z,6.27
2018-03-07T13:59:37.678Z,5.03
2018-03-07T14:02:05.913Z,6.00
2018-03-07T14:04:33.392Z,6.20
2018-03-07T14:07:01.132Z,5.57
2018-03-07T14:09:28.630Z,5.50
2018-03-07T14:11:56.451Z,5.40
2018-03-07T14:14:24.230Z,3.40
2018-03-07T14:16:52.694Z,3.90
2018-03-07T14:19:20.342Z,3.93
2018-03-07T14:21:47.829Z,4.17
2018-03-07T14:24:15.289Z,5.00
2018-03-07T14:26:42.810Z,6.20
2018-03-07T14:29:10.346Z,5.20
2018-03-07T14:31:37.801Z,4.93
2018-03-07T14:34:05.289Z,5.50
2018-03-07T14:36:32.762Z,4.57
2018-03-07T14:39:00.241Z,4.83
2018-03-07T14:41:27.696Z,5.17
2018-03-07T14:43:55.157Z,5.30
2018-03-07T14:46:22.642Z,4.63
2018-03-07T14:48:50.109Z,4.40
2018-03-07T14:51:18.333Z,5.23
2018-03-07T14:53:45.807Z,5.50
2018-03-07T14:56:13.297Z,4.90
2018-03-07T14:58:41.569Z,5.10
2018-03-07T15:01:09.054Z,5.43
2018-03-07T15:03:36.496Z,5.23
2018-03-07T15:06:04.748Z,6.40
2018-03-07T15:08:32.198Z,5.47
2018-03-07T15:10:59.649Z,6.07
2018-03-07T15:13:27.130Z,6.23
2018-03-07T15:15:54.794Z,6.03
2018-03-07T15:18:22.275Z,5.60
2018-03-07T15:20:50.505Z,5.87
2018-03-07T15:23:17.981Z,5.67
2018-03-07T15:25:45.462Z,6.43
2018-03-07T15:28:13.785Z,6.37
2018-03-07T15:30:41.249Z,7.83
2018-03-07T15:33:08.754Z,6.33
2018-03-07T15:35:36.228Z,8.07
2018-03-07T15:38:03.681Z,7.00
2018-03-07T15:40:31.335Z,8.70
2018-03-07T15:42:58.850Z,8.30
2018-03-07T15:45:26.408Z,8.00
2018-03-07T15:47:53.900Z,9.43
2018-03-07T15:50:22.518Z,9.27
2018-03-07T15:52:50.254Z,9.87
2018-03-07T15:55:18.786Z,9.80
2018-03-07T15:57:46.349Z,10.50
2018-03-07T16:00:14.231Z,11.73
2018-03-07T16:02:41.810Z,12.77
2018-03-07T16:05:10.093Z,10.47
2018-03-07T16:07:37.810Z,9.97
2018-03-07T16:10:05.779Z,12.00
2018-03-07T16:12:34.153Z,10.93
2018-03-07T16:15:01.774Z,13.43
2018-03-07T16:17:29.505Z,12.30
2018-03-07T16:19:57.001Z,11.40
2018-03-07T16:22:24.545Z,10.17
2018-03-07T16:24:52.334Z,12.33
2018-03-07T16:27:19.957Z,11.10
2018-03-07T16:29:47.581Z,10.77
2018-03-07T16:32:15.246Z,11.10
2018-03-07T16:34:42.736Z,11.80
2018-03-07T16:37:10.221Z,11.20
2018-03-07T16:39:37.702Z,11.50
2018-03-07T16:42:05.956Z,11.83
2018-03-07T16:44:33.417Z,12.23
2018-03-07T16:47:00.886Z,12.03
2018-03-07T16:49:29.250Z,11.70
2018-03-07T16:51:56.821Z,12.50
2018-03-07T16:54:24.290Z,11.03
2018-03-07T16:56:52.007Z,12.93
2018-03-07T16:59:19.570Z,13.90
2018-03-07T17:01:47.237Z,13.53
2018-03-07T17:04:14.951Z,13.63
2018-03-07T17:06:42.569Z,12.47
2018-03-07T17:09:10.035Z,13.27
2018-03-07T17:11:37.784Z,12.67
2018-03-07T17:14:05.493Z,14.10
2018-03-07T17:16:32.988Z,11.93
2018-03-07T17:19:00.655Z,12.63
2018-03-07T17:21:28.394Z,12.93
2018-03-07T17:23:56.910Z,13.73
2018-03-07T17:26:25.138Z,11.43
2018-03-07T17:28:57.520Z,8.67
2018-03-07T17:31:25.127Z,9.30
2018-03-07T17:33:52.719Z,9.37
2018-03-07T17:36:21.047Z,5.90
2018-03-07T17:38:48.705Z,6.10
2018-03-07T17:41:16.281Z,6.23
2018-03-07T17:43:43.758Z,5.43
2018-03-07T17:46:11.240Z,3.80
2018-03-07T17:48:39.935Z,4.07
2018-03-07T17:51:08.273Z,3.73
2018-03-07T17:53:36.848Z,4.10
2018-03-07T17:56:06.535Z,3.40
2018-03-07T17:58:35.477Z,3.43
2018-03-07T18:01:06.341Z,2.50
2018-03-07T18:03:35.894Z,3.00
2018-03-07T18:06:05.481Z,2.60
2018-03-07T18:08:36.060Z,2.20
2018-03-07T18:11:06.903Z,2.73
2018-03-07T18:13:34.852Z,2.63
2018-03-07T18:16:03.706Z,2.50
2018-03-07T18:18:31.896Z,3.90
2018-03-07T18:21:00.762Z,3.20
2018-03-07T18:23:29.232Z,2.30
2018-03-07T18:25:58.419Z,2.97
2018-03-07T18:28:27.902Z,3.20
2018-03-07T18:33:32.633Z,3.23
2018-03-07T18:36:00.685Z,4.00
2018-03-07T18:38:30.707Z,3.60
2018-03-07T18:41:00.885Z,3.87
2018-03-07T18:43:38.914Z,4.10
2018-03-07T18:46:07.505Z,4.50
2018-03-07T18:48:40.988Z,3.67
2018-03-07T18:51:09.002Z,4.43
2018-03-07T18:53:37.999Z,4.03
2018-03-07T18:56:09.151Z,4.93
2018-03-07T18:58:42.107Z,5.40
2018-03-07T19:01:13.132Z,3.87
2018-03-07T19:03:42.048Z,5.37
2018-03-07T19:06:11.584Z,5.20
2018-03-07T19:08:42.215Z,5.33
2018-03-07T19:11:10.875Z,5.70
2018-03-07T19:13:39.467Z,5.30
2018-03-07T19:16:11.263Z,5.10
2018-03-07T19:18:42.434Z,6.60
2018-03-07T19:21:11.305Z,5.20
2018-03-07T19:23:39.441Z,4.47
2018-03-07T19:26:09.412Z,4.93
2018-03-07T19:28:39.657Z,4.30
2018-03-07T19:31:10.661Z,5.90
2018-03-07T19:33:40.261Z,5.57
2018-03-07T19:36:08.287Z,6.03
2018-03-07T19:38:37.238Z,6.00
2018-03-07T19:41:06.029Z,6.63
2018-03-07T19:43:34.104Z,6.27
2018-03-07T19:46:04.078Z,5.77
2018-03-07T19:48:34.527Z,6.60
2018-03-07T19:51:03.328Z,6.97
2018-03-07T19:53:32.563Z,6.90
2018-03-07T19:56:04.017Z,6.90
2018-03-07T19:58:31.525Z,7.93
2018-03-07T20:00:59.249Z,9.30
2018-03-07T20:03:26.845Z,7.33
2018-03-07T20:05:54.551Z,10.27
2018-03-07T20:08:22.918Z,8.97
2018-03-07T20:10:50.418Z,9.50
2018-03-07T20:13:18.148Z,9.63
2018-03-07T20:15:45.809Z,10.67
2018-03-07T20:18:13.609Z,11.27
2018-03-07T20:20:41.374Z,9.07
2018-03-07T20:23:08.879Z,9.57
2018-03-07T20:25:36.540Z,9.87
2018-03-07T20:28:05.118Z,10.50
2018-03-07T20:30:32.648Z,9.47
2018-03-07T20:33:00.351Z,11.23
2018-03-07T20:35:28.099Z,11.90
2018-03-07T20:37:55.828Z,11.60
2018-03-07T20:40:23.559Z,8.40
2018-03-07T20:42:51.291Z,11.80
2018-03-07T20:45:18.874Z,10.27
2018-03-07T20:47:46.553Z,15.03
2018-03-07T20:50:14.045Z,15.07
2018-03-07T20:52:41.672Z,11.00
2018-03-07T20:55:10.053Z,15.23
2018-03-07T20:57:37.722Z,12.33
2018-03-07T21:00:05.411Z,14.20
2018-03-07T21:02:33.089Z,17.83
2018-03-07T21:05:00.810Z,8.03
2018-03-07T21:07:29.205Z,9.67
2018-03-07T21:09:56.703Z,10.40
2018-03-07T21:12:24.395Z,8.33
2018-03-07T21:14:52.069Z,9.70
2018-03-07T21:17:19.837Z,10.87
2018-03-07T21:19:48.125Z,5.27
2018-03-07T21:22:16.366Z,12.17
2018-03-07T21:24:43.823Z,12.83
2018-03-07T21:27:11.315Z,7.40
2018-03-07T21:29:39.535Z,7.10
2018-03-07T21:32:07.002Z,13.17
2018-03-07T21:34:34.483Z,6.90
2018-03-07T21:37:01.935Z,11.70
2018-03-07T21:39:29.498Z,11.73
2018-03-07T21:41:56.956Z,12.10
2018-03-07T21:44:24.427Z,9.70
2018-03-07T21:46:51.913Z,11.03
2018-03-07T21:49:19.533Z,10.87
2018-03-07T21:51:47.049Z,5.83
2018-03-07T21:54:14.511Z,5.47
2018-03-07T21:56:41.997Z,9.80
2018-03-07T21:59:09.457Z,5.00
2018-03-07T22:01:36.925Z,8.33
2018-03-07T22:04:04.402Z,8.43
2018-03-07T22:06:32.641Z,6.07
2018-03-07T22:09:00.130Z,8.00
2018-03-07T22:11:28.369Z,5.70
2018-03-07T22:13:56.592Z,6.87
2018-03-07T22:16:24.865Z,3.60
2018-03-07T22:18:52.426Z,5.40
2018-03-07T22:21:20.799Z,3.87
2018-03-07T22:23:48.273Z,5.67
2018-03-07T22:26:15.741Z,5.43
2018-03-07T22:28:43.221Z,6.10
2018-03-07T22:31:10.685Z,4.97
2018-03-07T22:33:38.157Z,9.67
2018-03-07T22:36:05.653Z,6.23
2018-03-07T22:38:33.897Z,5.47
2018-03-07T22:41:01.338Z,6.60
2018-03-07T22:43:30.531Z,10.60
2018-03-07T22:45:58.017Z,7.80
2018-03-07T22:48:25.474Z,9.37
2018-03-07T22:50:52.938Z,9.87
2018-03-07T22:53:20.478Z,12.07
2018-03-07T22:55:47.964Z,9.47
2018-03-07T22:58:15.418Z,8.20
2018-03-07T23:00:48.812Z,10.07
2018-03-07T23:03:16.257Z,8.67
2018-03-07T23:05:43.759Z,10.00
2018-03-07T23:08:11.983Z,11.97
2018-03-07T23:10:39.447Z,5.10
2018-03-07T23:13:06.928Z,16.63
2018-03-07T23:15:34.394Z,9.07
2018-03-07T23:18:02.688Z,12.13
2018-03-07T23:20:30.924Z,10.90
2018-03-07T23:22:58.404Z,5.47
2018-03-07T23:25:25.885Z,11.47
2018-03-07T23:27:53.343Z,6.47
2018-03-07T23:30:20.893Z,10.03
2018-03-07T23:32:49.109Z,7.77
2018-03-07T23:35:16.596Z,8.63
2018-03-07T23:37:44.061Z,7.77
2018-03-07T23:40:11.534Z,8.07
2018-03-07T23:42:39.777Z,9.77
2018-03-07T23:45:07.287Z,8.10
2018-03-07T23:47:34.743Z,10.20
2018-03-07T23:50:02.961Z,8.87
2018-03-07T23:52:30.442Z,10.40
2018-03-07T23:54:57.910Z,7.30
2018-03-07T23:57:25.381Z,8.77
2018-03-07T23:59:53.635Z,11.50
